Time;durP1;ratioP1;P1;durP2;ratioP2;P2;SDS_P1;SDS_P2;PMS_P1;PMS_P2;Temp;Humidity;BMP_temperature;BMP_pressure;BME280_temperature;BME280_humidity;BME280_pressure;Samples;Min_cycle;Max_cycle;Signal;HPM_P1;HPM_P2
2023/08/06 00:01:37;;;;;;;15.82;11.07;;;;;;;29.52;100.00;97452.50;4892567;29;20479;-68
2023/08/06 00:04:06;;;;;;;14.05;11.38;;;;;;;29.50;100.00;97447.38;4907413;29;20040;-68
2023/08/06 00:06:35;;;;;;;21.38;10.93;;;;;;;29.47;100.00;97447.28;4891948;29;20692;-68
2023/08/06 00:09:06;;;;;;;14.30;10.40;;;;;;;29.48;100.00;97449.63;4906925;29;20060;-68
2023/08/06 00:14:24;;;;;;;11.50;10.30;;;;;;;29.45;100.00;97445.69;4908216;29;20673;-68
2023/08/06 00:16:54;;;;;;;15.57;11.15;;;;;;;29.44;100.00;97455.00;4906878;29;20209;-68
2023/08/06 00:19:23;;;;;;;13.57;9.98;;;;;;;29.44;100.00;97456.94;4907988;29;20103;-68
2023/08/06 00:21:53;;;;;;;23.33;12.05;;;;;;;29.23;100.00;97453.53;4891518;29;20119;-68
2023/08/06 00:24:22;;;;;;;13.63;10.25;;;;;;;29.28;100.00;97454.09;4906369;29;20181;-67
2023/08/06 00:26:51;;;;;;;13.15;10.60;;;;;;;29.27;100.00;97455.25;4907822;29;20067;-68
2023/08/06 00:29:20;;;;;;;16.88;10.60;;;;;;;29.28;100.00;97451.38;4908297;29;20491;-68
2023/08/06 00:31:50;;;;;;;12.20;10.32;;;;;;;29.32;100.00;97454.25;4890304;29;20064;-68
2023/08/06 00:34:20;;;;;;;14.95;10.02;;;;;;;29.27;100.00;97447.06;4889901;29;20143;-68
2023/08/06 00:36:49;;;;;;;13.45;10.13;;;;;;;29.32;100.00;97455.03;4891832;29;20468;-68
2023/08/06 00:39:18;;;;;;;13.98;10.25;;;;;;;29.30;100.00;97454.56;4890675;29;20059;-69
2023/08/06 00:41:47;;;;;;;16.33;9.60;;;;;;;29.29;100.00;97454.91;4890644;29;20067;-69
2023/08/06 00:44:18;;;;;;;14.30;10.07;;;;;;;29.28;100.00;97445.13;4873794;29;20052;-69
2023/08/06 00:46:47;;;;;;;13.90;10.35;;;;;;;29.29;100.00;97447.56;4890883;29;20040;-69
2023/08/06 00:49:17;;;;;;;13.07;9.52;;;;;;;29.28;100.00;97443.19;4890112;29;20753;-66
2023/08/06 00:51:47;;;;;;;11.82;9.13;;;;;;;29.28;100.00;97445.13;4865075;29;20048;-67
2023/08/06 00:54:17;;;;;;;11.23;8.80;;;;;;;29.29;100.00;97438.53;4874462;29;20064;-67
2023/08/06 00:56:47;;;;;;;15.57;9.65;;;;;;;29.11;100.00;97446.19;4875962;29;20145;-69
2023/08/06 00:59:17;;;;;;;11.13;8.63;;;;;;;29.23;100.00;97456.28;4907355;29;20058;-69
2023/08/06 01:01:46;;;;;;;14.75;9.32;;;;;;;29.30;100.00;97451.84;4887694;29;20376;-68
2023/08/06 01:04:16;;;;;;;11.35;9.10;;;;;;;29.35;100.00;97451.59;4885372;29;20107;-67
2023/08/06 01:06:56;;;;;;;12.27;8.55;;;;;;;29.32;100.00;97448.78;4895128;29;20058;-67
2023/08/06 01:09:45;;;;;;;12.65;9.20;;;;;;;29.42;100.00;97456.50;4888570;29;20052;-68
2023/08/06 01:12:25;;;;;;;14.73;9.35;;;;;;;29.47;100.00;97452.72;4906833;29;20037;-67
2023/08/06 01:14:59;;;;;;;11.15;8.93;;;;;;;29.43;100.00;97453.41;4873523;29;20420;-67
2023/08/06 01:17:31;;;;;;;11.98;8.82;;;;;;;29.43;100.00;97453.41;4890161;29;20693;-67
2023/08/06 01:20:00;;;;;;;14.65;9.75;;;;;;;29.38;100.00;97455.59;4890999;29;20048;-68
2023/08/06 01:22:30;;;;;;;11.73;9.48;;;;;;;29.34;100.00;97460.94;4890132;29;20052;-67
2023/08/06 01:25:00;;;;;;;12.60;9.52;;;;;;;29.50;100.00;97466.47;4888083;29;20563;-67
2023/08/06 01:27:32;;;;;;;14.00;9.00;;;;;;;29.56;100.00;97469.75;4897375;29;20052;-68
2023/08/06 01:30:12;;;;;;;11.32;9.63;;;;;;;29.55;100.00;97460.78;4905260;29;20670;-67
2023/08/06 01:32:49;;;;;;;13.48;9.05;;;;;;;29.65;100.00;97463.00;4873510;29;20059;-67
2023/08/06 01:35:21;;;;;;;17.60;10.20;;;;;;;29.69;100.00;97465.84;4901548;29;20048;-68
2023/08/06 01:37:51;;;;;;;15.20;10.82;;;;;;;29.68;100.00;97464.25;4888169;29;20052;-68
2023/08/06 01:40:20;;;;;;;19.85;10.18;;;;;;;29.81;100.00;97463.84;4888071;29;20137;-69
2023/08/06 01:42:50;;;;;;;14.50;10.43;;;;;;;29.89;100.00;97460.19;4890750;29;20692;-70
2023/08/06 01:45:19;;;;;;;15.15;11.40;;;;;;;30.00;100.00;97460.50;4904222;29;20048;-67
2023/08/06 01:47:50;;;;;;;16.88;11.25;;;;;;;30.02;100.00;97455.47;4890209;29;20140;-66
2023/08/06 01:50:20;;;;;;;17.63;12.00;;;;;;;30.02;100.00;97466.41;4890094;29;20064;-68
2023/08/06 01:53:07;;;;;;;18.95;11.80;;;;;;;30.08;100.00;97459.53;4890461;29;20052;-70
2023/08/06 01:55:37;;;;;;;17.67;11.52;;;;;;;30.15;100.00;97459.72;4889172;29;20228;-67
2023/08/06 01:58:06;;;;;;;19.35;11.77;;;;;;;30.31;100.00;97459.75;4889177;29;20067;-68
2023/08/06 02:00:36;;;;;;;20.20;11.82;;;;;;;30.40;100.00;97467.78;4901361;29;20052;-68
2023/08/06 02:03:23;;;;;;;18.48;12.07;;;;;;;30.57;100.00;97468.25;4911125;29;20756;-68
2023/08/06 02:05:53;;;;;;;17.52;11.20;;;;;;;30.72;100.00;97461.97;4908939;29;20048;-67
2023/08/06 02:08:22;;;;;;;18.40;11.45;;;;;;;30.69;100.00;97464.63;4909479;29;20060;-68
2023/08/06 02:10:52;;;;;;;29.58;13.98;;;;;;;30.94;100.00;97465.22;4917014;29;20058;-68
2023/08/06 02:13:39;;;;;;;18.70;12.45;;;;;;;31.07;100.00;97461.28;4909436;29;20051;-68
2023/08/06 02:16:09;;;;;;;19.77;12.07;;;;;;;31.19;100.00;97466.63;4909059;29;20047;-68
2023/08/06 02:18:38;;;;;;;18.23;12.05;;;;;;;31.57;100.00;97466.69;4911284;29;20051;-68
2023/08/06 02:21:26;;;;;;;15.93;11.65;;;;;;;31.49;100.00;97464.94;4909765;29;20044;-68
2023/08/06 02:23:56;;;;;;;18.83;12.40;;;;;;;31.56;100.00;97464.31;4906961;29;20083;-66
2023/08/06 02:26:25;;;;;;;18.25;12.00;;;;;;;31.44;100.00;97461.69;4909480;29;20087;-66
2023/08/06 02:28:56;;;;;;;23.05;12.80;;;;;;;31.68;100.00;97464.19;4908841;29;20155;-67
2023/08/06 02:31:25;;;;;;;17.83;11.60;;;;;;;31.96;100.00;97455.72;4908471;29;20135;-69
2023/08/06 02:33:57;;;;;;;19.80;11.65;;;;;;;32.26;100.00;97458.66;4907779;29;20075;-67
2023/08/06 02:36:29;;;;;;;18.83;11.27;;;;;;;32.43;100.00;97463.66;4909150;29;20052;-67
2023/08/06 02:38:59;;;;;;;22.58;12.77;;;;;;;32.18;100.00;97465.94;4908932;29;20048;-67
2023/08/06 02:41:39;;;;;;;26.73;13.40;;;;;;;32.37;100.00;97456.88;4908734;29;20067;-67
2023/08/06 02:44:09;;;;;;;17.38;12.35;;;;;;;32.41;100.00;97460.47;4908565;29;20048;-67
2023/08/06 02:46:56;;;;;;;23.48;13.70;;;;;;;32.45;100.00;97456.66;4909522;29;20586;-68
2023/08/06 02:49:27;;;;;;;26.27;13.75;;;;;;;32.34;100.00;97454.88;4909275;29;20631;-67
2023/08/06 02:51:56;;;;;;;20.73;13.18;;;;;;;32.47;100.00;97459.81;4909514;29;20064;-67
2023/08/06 02:54:25;;;;;;;22.15;13.45;;;;;;;32.39;100.00;97451.84;4905828;29;20388;-68
2023/08/06 02:56:55;;;;;;;30.70;14.40;;;;;;;32.23;100.00;97451.16;4909318;29;20048;-70
2023/08/06 02:59:29;;;;;;;18.17;12.98;;;;;;;32.41;100.00;97449.50;4894016;29;20051;-68
2023/08/06 03:02:13;;;;;;;22.20;13.60;;;;;;;32.61;100.00;97453.00;4907099;29;20059;-69
2023/08/06 03:05:03;;;;;;;27.70;14.23;;;;;;;32.30;100.00;97451.28;4903847;29;20050;-68
2023/08/06 03:07:37;;;;;;;26.92;14.52;;;;;;;32.31;100.00;97448.16;4909148;29;20131;-68
2023/08/06 03:10:14;;;;;;;25.77;15.82;;;;;;;32.52;100.00;97450.50;4906631;29;20052;-67
2023/08/06 03:12:44;;;;;;;26.02;15.00;;;;;;;32.36;100.00;97453.34;4908107;29;20159;-67
2023/08/06 03:15:14;;;;;;;25.38;15.65;;;;;;;32.30;100.00;97451.28;4900647;29;20495;-66
2023/08/06 03:17:45;;;;;;;26.40;15.95;;;;;;;32.25;100.00;97449.66;4908162;29;20143;-68
2023/08/06 03:20:36;;;;;;;30.38;15.00;;;;;;;32.22;100.00;97453.09;4891550;29;20123;-68
2023/08/06 03:23:05;;;;;;;23.55;13.43;;;;;;;32.38;100.00;97458.47;4906461;29;20139;-67
2023/08/06 03:25:38;;;;;;;28.88;14.70;;;;;;;32.14;100.00;97453.34;4890815;29;20139;-68
2023/08/06 03:28:08;;;;;;;;;;;;;;;32.27;100.00;97452.00;4892979;29;20056;-67
2023/08/06 03:30:37;;;;;;;25.10;13.07;;;;;;;32.40;100.00;97453.41;4905538;29;19927;-68
2023/08/06 03:33:09;;;;;;;29.02;12.80;;;;;;;32.39;100.00;97457.31;4893184;29;20557;-68
2023/08/06 03:35:40;;;;;;;23.95;12.60;;;;;;;32.44;100.00;97466.03;4908623;29;20138;-67
2023/08/06 03:38:10;;;;;;;29.10;11.27;;;;;;;32.40;100.00;97467.91;4907433;29;20895;-68
2023/08/06 03:40:40;;;;;;;26.05;11.43;;;;;;;32.47;100.00;97468.06;4920285;29;20044;-64
2023/08/06 03:43:09;;;;;;;28.13;11.70;;;;;;;32.57;100.00;97466.66;4907675;29;20092;-67
2023/08/06 03:45:38;;;;;;;20.17;10.70;;;;;;;32.66;100.00;97460.94;4904063;29;20365;-67
2023/08/06 03:48:08;;;;;;;24.17;12.73;;;;;;;32.75;98.69;97465.00;4907314;29;20709;-67
2023/08/06 03:50:38;;;;;;;26.17;11.75;;;;;;;32.80;98.69;97464.69;4906807;29;20060;-67
2023/08/06 03:53:10;;;;;;;22.75;10.00;;;;;;;32.86;96.03;97474.19;4909002;29;20054;-67
2023/08/06 03:55:40;;;;;;;21.50;9.80;;;;;;;32.88;95.56;97471.88;4923177;29;20532;-67
2023/08/06 03:58:09;;;;;;;19.52;9.93;;;;;;;33.08;95.86;97463.53;4907685;29;20131;-67
2023/08/06 04:00:39;;;;;;;31.95;10.27;;;;;;;33.10;94.24;97469.47;4908254;29;20044;-68
2023/08/06 04:03:08;;;;;;;23.13;10.25;;;;;;;33.19;94.53;97472.75;4907409;29;20044;-67
2023/08/06 04:05:38;;;;;;;25.85;10.40;;;;;;;33.35;94.20;97476.91;4909873;29;20048;-68
2023/08/06 04:08:07;;;;;;;23.08;8.00;;;;;;;33.43;92.23;97477.78;4906712;29;20164;-68
2023/08/06 04:10:36;;;;;;;20.77;8.65;;;;;;;33.51;89.63;97475.94;4907815;29;20051;-67
2023/08/06 04:13:06;;;;;;;24.65;7.57;;;;;;;33.56;89.71;97475.59;4908064;29;20058;-68
2023/08/06 04:15:35;;;;;;;28.55;8.73;;;;;;;33.52;87.78;97480.25;4908095;29;20055;-68
2023/08/06 04:18:05;;;;;;;22.65;7.72;;;;;;;33.55;87.46;97483.03;4907817;29;20048;-67
2023/08/06 04:20:35;;;;;;;19.73;7.95;;;;;;;33.63;86.59;97483.94;4908378;29;20129;-67
2023/08/06 04:23:06;;;;;;;22.42;7.55;;;;;;;33.70;87.47;97486.81;4906147;29;20490;-68
2023/08/06 04:25:36;;;;;;;20.88;6.65;;;;;;;33.78;86.62;97483.78;4907284;29;20567;-68
2023/08/06 04:28:06;;;;;;;23.60;7.93;;;;;;;33.92;87.60;97479.59;4905714;29;20075;-67
2023/08/06 04:30:37;;;;;;;22.90;6.95;;;;;;;34.02;85.67;97481.69;4906607;29;20060;-68
2023/08/06 04:33:08;;;;;;;19.00;6.90;;;;;;;34.15;84.78;97483.00;4906534;29;20550;-68
2023/08/06 04:35:38;;;;;;;27.88;7.25;;;;;;;34.35;85.17;97476.16;4907878;29;20062;-68
2023/08/06 04:38:08;;;;;;;20.23;6.78;;;;;;;34.56;83.02;97484.66;4906991;29;20048;-68
2023/08/06 04:40:38;;;;;;;17.80;6.90;;;;;;;34.62;82.00;97474.84;4908180;29;20052;-68
2023/08/06 04:43:07;;;;;;;22.23;6.60;;;;;;;34.59;81.17;97483.88;4906189;29;20040;-67
2023/08/06 04:45:36;;;;;;;21.73;6.95;;;;;;;34.98;81.03;97481.47;4907149;29;20047;-67
2023/08/06 04:48:06;;;;;;;18.20;6.63;;;;;;;35.23;80.98;97475.38;4906964;29;20059;-69
2023/08/06 04:50:35;;;;;;;22.10;7.20;;;;;;;35.14;81.22;97478.44;4907116;29;20063;-66
2023/08/06 04:53:04;;;;;;;22.20;7.07;;;;;;;35.36;81.14;97476.63;4890544;29;20052;-68
2023/08/06 04:58:22;;;;;;;20.10;7.57;;;;;;;35.55;79.65;97490.88;4904527;29;20846;-68
2023/08/06 05:00:54;;;;;;;20.63;6.93;;;;;;;35.75;78.91;97487.88;4906879;29;20053;-68
2023/08/06 05:03:24;;;;;;;21.70;6.97;;;;;;;35.57;78.41;97480.28;4906067;29;20065;-68
2023/08/06 05:05:53;;;;;;;21.17;6.85;;;;;;;35.39;77.56;97484.13;4907956;29;20534;-68
2023/08/06 05:08:22;;;;;;;15.05;5.88;;;;;;;35.87;77.56;97482.78;4890197;29;20055;-69
2023/08/06 05:10:51;;;;;;;22.13;7.68;;;;;;;35.88;75.94;97480.84;4905907;29;20048;-68
2023/08/06 05:13:21;;;;;;;20.52;6.28;;;;;;;36.15;78.16;97478.56;4905394;29;20087;-68
2023/08/06 05:15:50;;;;;;;20.65;6.40;;;;;;;35.92;74.24;97476.13;4906720;29;20056;-68
2023/08/06 05:18:21;;;;;;;24.67;6.05;;;;;;;35.69;75.47;97467.34;4889013;29;20076;-68
2023/08/06 05:20:50;;;;;;;18.70;6.05;;;;;;;36.23;75.16;97469.13;4905844;29;20471;-68
2023/08/06 05:26:07;;;;;;;16.05;6.05;;;;;;;36.29;72.37;97464.81;4889190;29;20051;-68
2023/08/06 05:28:36;;;;;;;21.25;6.00;;;;;;;36.16;72.10;97458.88;4889579;29;20048;-69
2023/08/06 05:31:06;;;;;;;23.42;8.27;;;;;;;36.50;74.42;97458.53;4889835;29;20052;-68
2023/08/06 05:33:36;;;;;;;20.17;6.30;;;;;;;36.60;71.80;97449.50;4888183;29;20059;-68
2023/08/06 05:36:06;;;;;;;21.25;6.43;;;;;;;36.65;74.53;97454.59;4903202;29;20052;-68
2023/08/06 05:38:35;;;;;;;23.35;5.43;;;;;;;36.39;70.63;97451.03;4904140;29;20492;-68
2023/08/06 05:41:23;;;;;;;16.42;5.60;;;;;;;36.48;70.73;97448.69;4889158;29;20056;-68
2023/08/06 05:43:52;;;;;;;16.98;5.28;;;;;;;36.50;66.47;97453.81;4906038;29;20365;-68
2023/08/06 05:46:21;;;;;;;14.38;4.85;;;;;;;36.68;69.25;97446.34;4902022;29;20101;-68
2023/08/06 05:48:51;;;;;;;24.27;6.88;;;;;;;36.82;69.81;97445.56;4891702;29;20044;-68
2023/08/06 05:51:20;;;;;;;17.67;5.20;;;;;;;36.56;64.81;97443.19;4889114;29;20044;-68
2023/08/06 05:53:53;;;;;;;21.17;5.43;;;;;;;36.59;66.46;97445.13;4901903;29;20833;-68
2023/08/06 05:56:23;;;;;;;16.25;5.55;;;;;;;36.84;68.50;97441.22;4885660;29;20060;-67
2023/08/06 05:58:53;;;;;;;16.25;5.60;;;;;;;36.58;65.72;97438.03;4906024;29;20063;-69
2023/08/06 06:01:23;;;;;;;17.83;4.43;;;;;;;36.74;65.64;97430.97;4905878;29;20055;-68
2023/08/06 06:03:53;;;;;;;14.80;4.65;;;;;;;36.74;64.94;97446.72;4903110;29;20055;-68
2023/08/06 06:06:22;;;;;;;19.50;5.35;;;;;;;36.80;66.59;97436.88;4907372;29;20145;-68
2023/08/06 06:08:51;;;;;;;13.50;4.88;;;;;;;36.77;67.88;97437.69;4905302;29;20638;-68
2023/08/06 06:11:22;;;;;;;17.63;5.30;;;;;;;36.75;67.92;97434.50;4888130;29;20067;-69
2023/08/06 06:13:52;;;;;;;18.45;5.35;;;;;;;36.90;68.78;97439.63;4905523;29;20055;-69
2023/08/06 06:16:21;;;;;;;19.08;6.25;;;;;;;37.00;68.43;97431.75;4904116;29;20059;-69
2023/08/06 06:18:50;;;;;;;18.52;5.75;;;;;;;37.03;69.59;97428.97;4902814;29;20380;-68
2023/08/06 06:21:20;;;;;;;17.80;5.95;;;;;;;37.15;69.90;97431.31;4906552;29;20551;-68
2023/08/06 06:23:49;;;;;;;23.50;5.88;;;;;;;37.23;69.50;97423.78;4890702;29;20060;-68
2023/08/06 06:26:21;;;;;;;17.17;5.57;;;;;;;36.81;69.42;97408.09;4905553;29;20072;-68
2023/08/06 06:28:51;;;;;;;18.70;5.90;;;;;;;36.82;69.34;97412.44;4887842;29;20655;-68
2023/08/06 06:31:20;;;;;;;22.88;6.20;;;;;;;36.79;66.95;97408.47;4902564;29;20052;-66
2023/08/06 06:34:08;;;;;;;21.30;5.43;;;;;;;36.72;67.87;97416.78;4903754;29;20166;-69
2023/08/06 06:36:38;;;;;;;22.52;6.35;;;;;;;36.67;71.50;97408.09;4883859;29;20119;-69
2023/08/06 06:39:08;;;;;;;20.23;5.75;;;;;;;36.84;69.62;97401.78;4904332;29;20551;-67
2023/08/06 06:41:38;;;;;;;22.00;5.72;;;;;;;36.93;68.13;97402.16;4905970;29;20056;-67
2023/08/06 06:44:19;;;;;;;22.50;6.10;;;;;;;36.46;68.90;97406.13;4887278;29;20624;-67
2023/08/06 06:46:49;;;;;;;19.27;4.78;;;;;;;36.21;69.93;97400.56;4905141;29;20119;-69
2023/08/06 06:49:18;;;;;;;19.58;5.15;;;;;;;36.00;69.68;97395.00;4891421;29;20141;-70
2023/08/06 06:51:48;;;;;;;23.25;5.38;;;;;;;36.08;69.88;97401.31;4904929;29;20055;-69
2023/08/06 06:54:17;;;;;;;26.58;5.60;;;;;;;36.08;71.35;97399.34;4907728;29;20063;-69
2023/08/06 06:56:47;;;;;;;15.18;5.75;;;;;;;36.29;70.68;97396.63;4907791;29;20095;-71
2023/08/06 06:59:16;;;;;;;17.15;5.13;;;;;;;35.88;71.54;97392.63;4907373;29;20052;-70
2023/08/06 07:01:46;;;;;;;20.73;5.47;;;;;;;35.78;72.27;97388.66;4908481;29;20083;-73
2023/08/06 07:04:16;;;;;;;22.20;5.30;;;;;;;35.56;72.74;97387.00;4907517;29;20048;-70
2023/08/06 07:06:45;;;;;;;19.27;5.50;;;;;;;35.72;73.89;97381.16;4907401;29;20601;-70
2023/08/06 07:09:15;;;;;;;15.82;5.18;;;;;;;35.93;71.52;97375.72;4905501;29;20044;-70
2023/08/06 07:11:49;;;;;;;17.60;5.50;;;;;;;36.08;73.15;97376.50;4906078;29;20745;-70
2023/08/06 07:14:19;;;;;;;19.48;5.40;;;;;;;36.21;71.33;97377.72;4891535;29;20054;-68
2023/08/06 07:16:49;;;;;;;18.58;6.35;;;;;;;36.42;74.53;97375.00;4861929;29;20536;-71
2023/08/06 07:19:19;;;;;;;15.63;4.85;;;;;;;36.32;69.96;97371.06;4878236;29;20619;-67
2023/08/06 07:21:49;;;;;;;17.58;5.70;;;;;;;36.50;71.56;97367.50;4870778;29;20052;-68
2023/08/06 07:24:19;;;;;;;19.13;5.15;;;;;;;36.55;71.27;97358.81;4877739;29;20036;-70
2023/08/06 07:26:49;;;;;;;25.27;5.93;;;;;;;36.48;71.16;97359.59;4887244;29;20155;-70
2023/08/06 07:29:21;;;;;;;18.45;6.07;;;;;;;36.36;70.06;97352.53;4870671;29;20040;-70
2023/08/06 07:31:51;;;;;;;15.20;5.03;;;;;;;36.69;71.38;97345.81;4870076;29;20193;-68
2023/08/06 07:34:21;;;;;;;14.55;5.15;;;;;;;36.77;70.54;97335.56;4884017;29;20056;-68
2023/08/06 07:36:51;;;;;;;15.32;5.00;;;;;;;36.78;72.09;97345.41;4870634;29;20432;-68
2023/08/06 07:39:22;;;;;;;25.58;6.78;;;;;;;36.68;68.85;97343.47;4886633;29;20060;-64
2023/08/06 07:41:52;;;;;;;22.95;5.93;;;;;;;36.73;69.60;97343.06;4885882;29;20085;-69
2023/08/06 07:44:23;;;;;;;22.55;5.38;;;;;;;36.86;67.40;97338.69;4870382;29;20108;-67
2023/08/06 07:46:52;;;;;;;17.23;4.60;;;;;;;36.94;68.53;97337.47;4860533;29;20063;-68
2023/08/06 07:49:24;;;;;;;18.58;5.18;;;;;;;36.89;67.50;97333.16;4883316;29;20056;-68
2023/08/06 07:51:54;;;;;;;25.35;5.68;;;;;;;36.97;67.36;97330.34;4851646;29;20052;-70
2023/08/06 07:54:24;;;;;;;23.00;5.95;;;;;;;36.87;65.57;97332.75;4881030;29;20586;-65
2023/08/06 07:56:54;;;;;;;15.98;5.07;;;;;;;36.87;65.18;97330.00;4880765;29;20045;-67
2023/08/06 07:59:23;;;;;;;14.05;4.30;;;;;;;36.81;65.29;97320.56;4872452;29;20069;-67
2023/08/06 08:01:53;;;;;;;10.63;4.00;;;;;;;36.69;65.06;97318.22;4887529;29;20060;-69
2023/08/06 08:04:24;;;;;;;15.52;5.15;;;;;;;36.83;66.88;97320.16;4866301;29;20361;-69
2023/08/06 08:06:55;;;;;;;13.32;4.85;;;;;;;36.75;64.76;97318.59;4882234;29;20056;-68
2023/08/06 08:09:25;;;;;;;20.65;6.00;;;;;;;36.84;66.93;97307.94;4870316;29;20060;-68
2023/08/06 08:11:55;;;;;;;17.67;4.35;;;;;;;36.85;65.93;97307.53;4880378;29;20140;-72
2023/08/06 08:14:33;;;;;;;14.43;4.90;;;;;;;36.76;64.07;97304.41;4881841;29;20060;-69
2023/08/06 08:17:06;;;;;;;19.63;5.28;;;;;;;36.81;63.88;97303.22;4866573;29;20710;-67
2023/08/06 08:19:36;;;;;;;18.15;5.15;;;;;;;36.77;62.95;97296.91;4885356;29;20057;-69
2023/08/06 08:22:07;;;;;;;16.83;4.75;;;;;;;36.75;65.87;97296.50;4869908;29;20054;-67
2023/08/06 08:24:37;;;;;;;18.00;5.00;;;;;;;36.59;66.82;97299.72;4882501;29;20733;-72
2023/08/06 08:27:07;;;;;;;21.95;5.20;;;;;;;36.66;65.42;97285.09;4870327;29;20484;-71
2023/08/06 08:29:37;;;;;;;16.27;4.88;;;;;;;36.68;66.07;97285.50;4870827;29;20052;-72
2023/08/06 08:32:07;;;;;;;17.35;4.75;;;;;;;36.69;69.45;97278.81;4853031;29;20165;-71
2023/08/06 08:34:37;;;;;;;18.90;5.15;;;;;;;36.57;67.12;97268.94;4887088;29;20045;-68
2023/08/06 08:37:06;;;;;;;17.88;5.47;;;;;;;36.51;67.14;97270.56;4879492;29;20063;-69
2023/08/06 08:39:39;;;;;;;17.90;4.55;;;;;;;36.42;67.19;97262.69;4849269;29;20500;-69
2023/08/06 08:42:28;;;;;;;16.20;5.40;;;;;;;36.51;66.08;97259.50;4884247;29;20908;-68
2023/08/06 08:44:58;;;;;;;16.13;5.13;;;;;;;36.53;65.27;97264.63;4885221;29;20143;-68
2023/08/06 08:47:28;;;;;;;12.77;5.03;;;;;;;36.44;64.26;97259.50;4871324;29;20045;-68
2023/08/06 08:49:58;;;;;;;12.18;4.35;;;;;;;36.40;68.00;97254.00;4884782;29;20055;-69
2023/08/06 08:52:32;;;;;;;20.33;5.43;;;;;;;36.35;66.32;97256.38;4885364;29;20141;-70
2023/08/06 08:55:03;;;;;;;18.67;5.35;;;;;;;36.44;67.44;97254.78;4886946;29;20059;-69
2023/08/06 08:57:32;;;;;;;19.75;4.90;;;;;;;36.36;66.34;97244.97;4865098;29;20045;-68
2023/08/06 09:00:02;;;;;;;20.23;6.10;;;;;;;36.25;66.59;97244.19;4883538;29;20051;-69
2023/08/06 09:02:34;;;;;;;16.73;5.38;;;;;;;36.32;67.06;97246.16;4873425;29;20479;-70
2023/08/06 09:05:05;;;;;;;15.07;4.82;;;;;;;36.39;67.77;97244.16;4882006;29;20572;-71
2023/08/06 09:07:49;;;;;;;13.10;4.70;;;;;;;36.37;67.37;97237.47;4881492;29;20100;-72
2023/08/06 09:10:23;;;;;;;11.80;4.85;;;;;;;36.00;66.82;97235.91;4866507;29;20040;-70
2023/08/06 09:13:12;;;;;;;22.42;5.65;;;;;;;36.11;68.68;97233.16;4881228;29;20060;-72
2023/08/06 09:15:43;;;;;;;12.27;4.07;;;;;;;35.91;70.19;97220.97;4880992;29;20059;-70
2023/08/06 09:18:33;;;;;;;16.30;5.03;;;;;;;36.02;67.17;97219.78;4845154;29;20068;-69
2023/08/06 09:21:03;;;;;;;16.55;4.88;;;;;;;36.18;69.29;97219.38;4878289;29;20052;-70
2023/08/06 09:23:35;;;;;;;18.10;5.25;;;;;;;36.30;69.55;97215.41;4887298;29;20053;-69
2023/08/06 09:26:05;;;;;;;14.40;5.68;;;;;;;36.30;68.59;97215.41;4886542;29;20062;-71
2023/08/06 09:28:39;;;;;;;16.20;5.30;;;;;;;36.21;68.96;97215.81;4882883;29;20135;-69
2023/08/06 09:31:12;;;;;;;15.52;5.25;;;;;;;36.04;70.40;97208.34;4866409;29;20049;-68
2023/08/06 09:33:44;;;;;;;20.95;5.97;;;;;;;36.13;70.27;97207.97;4877258;29;20049;-66
2023/08/06 09:36:33;;;;;;;18.80;4.70;;;;;;;36.01;69.09;97192.59;4881500;29;20072;-68
2023/08/06 09:39:14;;;;;;;14.77;5.25;;;;;;;36.17;69.63;97197.72;4880948;29;20436;-70
2023/08/06 09:41:44;;;;;;;17.30;5.00;;;;;;;36.19;69.22;97196.16;4882649;29;20139;-67
2023/08/06 09:44:38;;;;;;;19.05;5.07;;;;;;;36.06;69.33;97183.94;4896195;29;20047;-69
2023/08/06 09:47:08;;;;;;;19.42;5.63;;;;;;;35.87;69.45;97187.91;4883099;29;20498;-69
2023/08/06 09:49:45;;;;;;;18.80;4.68;;;;;;;35.92;71.54;97183.97;4884309;29;20056;-69
2023/08/06 09:52:17;;;;;;;23.30;4.72;;;;;;;36.01;71.46;97176.84;4881064;29;20578;-71
2023/08/06 09:54:49;;;;;;;14.70;5.15;;;;;;;35.88;66.91;97185.94;4884857;29;20052;-71
2023/08/06 09:57:20;;;;;;;28.73;5.47;;;;;;;35.77;70.40;97174.13;4884318;29;20052;-70
2023/08/06 09:59:51;;;;;;;12.77;4.72;;;;;;;35.73;66.47;97168.63;4880829;29;20056;-73
2023/08/06 10:02:26;;;;;;;17.05;4.60;;;;;;;35.77;70.48;97163.88;4887857;29;20052;-70
2023/08/06 10:04:58;;;;;;;19.02;5.85;;;;;;;35.71;68.94;97170.19;4866960;29;20048;-71
2023/08/06 10:07:30;;;;;;;19.05;6.20;;;;;;;35.76;70.62;97169.81;4883801;29;20056;-68
2023/08/06 10:10:01;;;;;;;12.98;4.53;;;;;;;35.74;70.49;97155.63;4881429;29;20041;-68
2023/08/06 10:12:35;;;;;;;20.30;5.35;;;;;;;35.75;70.61;97151.69;4883488;29;20068;-71
2023/08/06 10:15:26;;;;;;;21.15;6.15;;;;;;;35.72;70.78;97152.47;4884234;29;20151;-68
2023/08/06 10:17:59;;;;;;;17.65;4.72;;;;;;;35.71;70.08;97153.66;4883468;29;20558;-68
2023/08/06 10:20:34;;;;;;;23.35;5.13;;;;;;;35.67;70.84;97150.94;4884501;29;20814;-71
2023/08/06 10:23:07;;;;;;;18.67;5.72;;;;;;;35.71;70.05;97142.66;4887707;29;20056;-68
2023/08/06 10:25:40;;;;;;;;;;;;;;;35.76;70.67;97143.00;4885965;29;20048;-70
2023/08/06 10:28:15;;;;;;;17.60;5.55;;;;;;;35.72;69.45;97141.44;4885262;29;20488;-71
2023/08/06 10:30:48;;;;;;;25.77;6.05;;;;;;;35.71;71.00;97126.13;4888553;29;20494;-72
2023/08/06 10:33:21;;;;;;;12.95;4.75;;;;;;;35.63;70.47;97132.78;4887611;29;20056;-69
2023/08/06 10:35:53;;;;;;;14.05;4.80;;;;;;;35.60;70.21;97124.13;4888227;29;20052;-69
2023/08/06 10:38:31;;;;;;;24.52;5.15;;;;;;;35.64;71.66;97117.81;4870801;29;20662;-72
2023/08/06 10:41:03;;;;;;;19.33;5.22;;;;;;;35.65;72.55;97111.94;4889383;29;20130;-70
2023/08/06 10:43:37;;;;;;;17.38;4.75;;;;;;;35.60;72.02;97112.31;4889873;29;20044;-70
2023/08/06 10:46:11;;;;;;;15.40;4.55;;;;;;;35.63;70.99;97114.28;4884247;29;20053;-67
2023/08/06 10:48:45;;;;;;;23.55;6.03;;;;;;;35.64;70.32;97112.31;4901222;29;20146;-70
2023/08/06 10:51:15;;;;;;;15.70;5.40;;;;;;;35.63;69.79;97108.75;4877494;29;20110;-71
2023/08/06 10:53:47;;;;;;;14.90;5.57;;;;;;;35.59;69.97;97103.25;4884856;29;20484;-70
2023/08/06 10:56:19;;;;;;;21.42;5.85;;;;;;;35.52;70.75;97097.78;4887028;29;20056;-71
2023/08/06 10:58:51;;;;;;;24.58;6.13;;;;;;;35.56;73.14;97103.28;4886738;29;20097;-67
2023/08/06 11:01:23;;;;;;;19.60;5.18;;;;;;;35.54;72.30;97097.34;4883762;29;20067;-71
2023/08/06 11:03:53;;;;;;;14.73;6.47;;;;;;;35.49;73.71;97090.31;4886751;29;20061;-70
2023/08/06 11:06:24;;;;;;;17.02;5.82;;;;;;;35.47;73.98;97083.59;4872595;29;20064;-74
2023/08/06 11:08:55;;;;;;;20.73;6.18;;;;;;;35.51;72.23;97081.63;4877725;29;20571;-74
2023/08/06 11:11:25;;;;;;;17.05;5.20;;;;;;;35.50;71.40;97080.84;4887179;29;20080;-72
2023/08/06 11:13:55;;;;;;;20.90;6.22;;;;;;;35.50;71.91;97085.56;4885230;29;20167;-72
2023/08/06 11:16:24;;;;;;;15.07;5.57;;;;;;;35.47;70.48;97076.13;4869836;29;20092;-69
2023/08/06 11:18:56;;;;;;;17.17;6.05;;;;;;;35.45;70.25;97083.22;4870858;29;20065;-71
2023/08/06 11:21:26;;;;;;;19.13;5.47;;;;;;;35.45;70.66;97078.47;4883477;29;20139;-71
2023/08/06 11:24:14;;;;;;;16.95;5.18;;;;;;;35.47;69.52;97076.13;4887353;29;20048;-68
2023/08/06 11:26:44;;;;;;;18.05;5.72;;;;;;;35.44;68.70;97079.69;4886856;29;20140;-66
2023/08/06 11:29:16;;;;;;;17.52;6.40;;;;;;;35.41;69.48;97071.41;4885009;29;20603;-65
2023/08/06 11:31:46;;;;;;;20.10;6.38;;;;;;;35.40;68.71;97065.13;4884618;29;20076;-67
2023/08/06 11:34:16;;;;;;;13.38;6.25;;;;;;;35.40;69.08;97062.38;4869263;29;20068;-68
2023/08/06 11:36:47;;;;;;;22.42;7.20;;;;;;;35.39;67.69;97068.28;4869498;29;20420;-69
2023/08/06 11:39:16;;;;;;;20.15;6.90;;;;;;;35.36;68.52;97055.31;4885806;29;20065;-69
2023/08/06 11:41:48;;;;;;;27.85;7.47;;;;;;;35.32;69.05;97058.03;4884666;29;20056;-67
2023/08/06 11:44:24;;;;;;;17.00;6.53;;;;;;;35.27;69.53;97066.72;4867802;29;20058;-68
2023/08/06 11:46:56;;;;;;;19.63;6.15;;;;;;;35.26;69.61;97053.34;4872587;29;20049;-66
2023/08/06 11:49:44;;;;;;;14.27;7.25;;;;;;;35.26;70.25;97054.13;4886507;29;20092;-68
2023/08/06 11:52:16;;;;;;;25.58;6.78;;;;;;;35.21;71.06;97046.25;4871456;29;20049;-69